Fayette, New York
Current Conditions -  °F | °C
As of 10:53 PM on Sunday 21 Dec 2014 (Local Time) from KPEO Reporting Station
Overcast Overcast  
Wind Chill: 29°   Ceiling: 2600
Heat Index: 29°   Visibility: 10mi
Dew Point: 22°   Wind: 3mph
Humidity: 75%   Direction: 170°S
Pressure: 30.29"   Gusts: NA
Location:  42.81°N, 76.81°W
Report Text: KPEO 220353Z AUTO 17003KT 10SM OVC026 M02/M06 A3029 RMK AO2 SLP271 T10171056
Loading
Personal Weather Stations






























Interactive Weather Map New forecast layout! Learn more

10-Day Weather Forecast

Advertisements
Track Severe Weather on mobile